createdAt,value
2022-11-20T00:00:27.079Z,971.58
2022-11-20T00:01:27.006Z,971.58
2022-11-20T00:02:26.971Z,971.59
2022-11-20T00:03:26.819Z,971.60
2022-11-20T00:04:26.733Z,971.60
2022-11-20T00:05:26.654Z,971.59
2022-11-20T00:06:26.563Z,971.61
2022-11-20T00:07:26.551Z,971.61
2022-11-20T00:08:26.395Z,971.59
2022-11-20T00:09:26.312Z,971.59
2022-11-20T00:10:26.224Z,971.56
2022-11-20T00:11:26.138Z,971.62
2022-11-20T00:12:26.058Z,971.63
2022-11-20T00:13:25.969Z,971.64
2022-11-20T00:14:25.886Z,971.63
2022-11-20T00:15:25.805Z,971.65
2022-11-20T00:16:25.716Z,971.64
2022-11-20T00:17:25.635Z,971.61
2022-11-20T00:18:25.538Z,971.60
2022-11-20T00:19:25.460Z,971.55
2022-11-20T00:20:25.375Z,971.51
2022-11-20T00:21:25.289Z,971.50
2022-11-20T00:22:25.201Z,971.48
2022-11-20T00:23:25.116Z,971.55
2022-11-20T00:24:25.036Z,971.54
2022-11-20T00:25:24.944Z,971.54
2022-11-20T00:26:24.872Z,971.53
2022-11-20T00:27:24.775Z,971.53
2022-11-20T00:28:24.689Z,971.52
2022-11-20T00:29:24.607Z,971.53
2022-11-20T00:30:24.525Z,971.56
2022-11-20T00:31:24.430Z,971.56
2022-11-20T00:32:24.348Z,971.56
2022-11-20T00:33:24.266Z,971.59
2022-11-20T00:34:24.174Z,971.55
2022-11-20T00:35:24.093Z,971.54
2022-11-20T00:36:24.011Z,971.56
2022-11-20T00:37:23.921Z,971.59
2022-11-20T00:38:23.837Z,971.60
2022-11-20T00:39:24.042Z,971.60
2022-11-20T00:40:23.666Z,971.64
2022-11-20T00:41:23.583Z,971.67
2022-11-20T00:42:23.495Z,971.65
2022-11-20T00:43:23.410Z,971.68
2022-11-20T00:44:23.327Z,971.63
2022-11-20T00:45:23.242Z,971.59
2022-11-20T00:46:23.155Z,971.60
2022-11-20T00:47:23.065Z,971.60
2022-11-20T00:48:22.983Z,971.58
2022-11-20T00:49:23.409Z,971.62
2022-11-20T00:50:22.813Z,971.58
2022-11-20T00:51:22.727Z,971.58
2022-11-20T00:52:22.639Z,971.59
2022-11-20T00:53:22.553Z,971.56
2022-11-20T00:54:22.470Z,971.59
2022-11-20T00:55:22.385Z,971.59
2022-11-20T00:56:22.300Z,971.60
2022-11-20T00:57:22.213Z,971.60
2022-11-20T00:58:22.125Z,971.60
2022-11-20T00:59:22.294Z,971.58
2022-11-20T01:00:21.958Z,971.59
2022-11-20T01:01:21.996Z,971.58
2022-11-20T01:02:21.784Z,971.58
2022-11-20T01:03:26.880Z,971.57
2022-11-20T01:04:21.617Z,971.59
2022-11-20T01:05:21.544Z,971.56
2022-11-20T01:06:21.448Z,971.57
2022-11-20T01:07:21.422Z,971.55
2022-11-20T01:08:21.277Z,971.57
2022-11-20T01:09:21.447Z,971.58
2022-11-20T01:10:21.102Z,971.55
2022-11-20T01:11:21.031Z,971.57
2022-11-20T01:12:20.944Z,971.58
2022-11-20T01:13:25.482Z,971.55
2022-11-20T01:14:20.764Z,971.60
2022-11-20T01:15:20.679Z,971.59
2022-11-20T01:16:20.611Z,971.61
2022-11-20T01:17:20.510Z,971.60
2022-11-20T01:18:20.427Z,971.64
2022-11-20T01:19:20.802Z,971.67
2022-11-20T01:20:20.252Z,971.65
2022-11-20T01:21:20.167Z,971.63
2022-11-20T01:22:20.080Z,971.60
2022-11-20T01:23:20.000Z,971.63
2022-11-20T01:24:19.907Z,971.65
2022-11-20T01:25:19.827Z,971.63
2022-11-20T01:26:19.741Z,971.64
2022-11-20T01:27:19.657Z,971.64
2022-11-20T01:28:19.599Z,971.56
2022-11-20T01:29:19.770Z,971.62
2022-11-20T01:30:19.402Z,971.62
2022-11-20T01:31:19.313Z,971.62
2022-11-20T01:32:19.226Z,971.60
2022-11-20T01:33:19.139Z,971.61
2022-11-20T01:34:19.059Z,971.57
2022-11-20T01:35:18.972Z,971.61
2022-11-20T01:36:18.882Z,971.60
2022-11-20T01:37:18.798Z,971.53
2022-11-20T01:38:18.713Z,971.55
2022-11-20T01:39:19.045Z,971.52
2022-11-20T01:40:18.542Z,971.51
2022-11-20T01:41:18.457Z,971.50
2022-11-20T01:42:18.399Z,971.46
2022-11-20T01:43:18.290Z,971.48
2022-11-20T01:44:18.200Z,971.47
2022-11-20T01:45:18.117Z,971.43
2022-11-20T01:46:18.031Z,971.42
2022-11-20T01:47:17.950Z,971.46
2022-11-20T01:48:17.858Z,971.51
2022-11-20T01:49:17.870Z,971.47
2022-11-20T01:50:17.691Z,971.52
2022-11-20T01:51:17.602Z,971.52
2022-11-20T01:52:17.516Z,971.49
2022-11-20T01:53:17.435Z,971.48
2022-11-20T01:54:17.348Z,971.46
2022-11-20T01:55:17.263Z,971.44
2022-11-20T01:56:17.174Z,971.39
2022-11-20T01:57:17.096Z,971.40
2022-11-20T01:58:17.005Z,971.43
2022-11-20T01:59:16.919Z,971.43
2022-11-20T02:00:16.837Z,971.44
2022-11-20T02:01:16.821Z,971.41
2022-11-20T02:02:16.663Z,971.40
2022-11-20T02:03:16.583Z,971.38
2022-11-20T02:04:16.495Z,971.36
2022-11-20T02:05:16.486Z,971.35
2022-11-20T02:06:16.321Z,971.34
2022-11-20T02:07:16.303Z,971.34
2022-11-20T02:08:16.165Z,971.33
2022-11-20T02:09:16.068Z,971.32
2022-11-20T02:10:15.989Z,971.31
2022-11-20T02:11:15.897Z,971.31
2022-11-20T02:12:15.808Z,971.36
2022-11-20T02:13:15.731Z,971.31
2022-11-20T02:14:15.644Z,971.29
2022-11-20T02:15:15.555Z,971.33
2022-11-20T02:16:15.469Z,971.33
2022-11-20T02:17:15.387Z,971.37
2022-11-20T02:18:15.299Z,971.32
2022-11-20T02:19:15.213Z,971.36
2022-11-20T02:20:15.134Z,971.37
2022-11-20T02:21:15.044Z,971.36
2022-11-20T02:22:14.961Z,971.37
2022-11-20T02:23:14.873Z,971.34
2022-11-20T02:24:14.785Z,971.31
2022-11-20T02:25:14.705Z,971.33
2022-11-20T02:26:14.619Z,971.31
2022-11-20T02:27:14.534Z,971.30
2022-11-20T02:28:14.446Z,971.28
2022-11-20T02:29:14.362Z,971.29
2022-11-20T02:30:14.284Z,971.28
2022-11-20T02:31:14.186Z,971.26
2022-11-20T02:32:14.106Z,971.28
2022-11-20T02:33:14.021Z,971.24
2022-11-20T02:34:13.938Z,971.26
2022-11-20T02:35:13.846Z,971.23
2022-11-20T02:36:13.763Z,971.23
2022-11-20T02:37:13.673Z,971.24
2022-11-20T02:38:13.597Z,971.21
2022-11-20T02:39:13.503Z,971.20
2022-11-20T02:40:13.421Z,971.21
2022-11-20T02:41:13.337Z,971.20
2022-11-20T02:42:13.248Z,971.25
2022-11-20T02:43:13.171Z,971.21
2022-11-20T02:44:13.081Z,971.22
2022-11-20T02:45:12.992Z,971.21
2022-11-20T02:46:12.912Z,971.22
2022-11-20T02:47:12.861Z,971.23
2022-11-20T02:48:12.738Z,971.22
2022-11-20T02:49:12.652Z,971.23
2022-11-20T02:50:12.569Z,971.24
2022-11-20T02:51:12.479Z,971.22
2022-11-20T02:52:12.397Z,971.22
2022-11-20T02:53:12.316Z,971.21
2022-11-20T02:54:12.232Z,971.19
2022-11-20T02:55:12.139Z,971.18
2022-11-20T02:56:12.056Z,971.18
2022-11-20T02:57:11.970Z,971.16
2022-11-20T02:58:11.887Z,971.21
2022-11-20T02:59:11.809Z,971.18
2022-11-20T03:00:11.714Z,971.20
2022-11-20T03:01:11.693Z,971.19
2022-11-20T03:02:11.548Z,971.18
2022-11-20T03:03:11.459Z,971.21
2022-11-20T03:04:11.370Z,971.19
2022-11-20T03:05:11.287Z,971.21
2022-11-20T03:06:11.204Z,971.21
2022-11-20T03:07:11.168Z,971.21
2022-11-20T03:08:11.032Z,971.21
2022-11-20T03:09:10.943Z,971.19
2022-11-20T03:10:10.862Z,971.20
2022-11-20T03:11:10.773Z,971.17
2022-11-20T03:12:10.693Z,971.12
2022-11-20T03:13:10.608Z,971.12
2022-11-20T03:14:10.527Z,971.08
2022-11-20T03:15:10.432Z,971.07
2022-11-20T03:16:10.352Z,971.08
2022-11-20T03:17:10.263Z,971.04
2022-11-20T03:18:10.177Z,971.07
2022-11-20T03:19:10.086Z,971.06
2022-11-20T03:20:10.011Z,971.07
2022-11-20T03:21:09.921Z,971.07
2022-11-20T03:22:09.839Z,971.05
2022-11-20T03:23:09.744Z,971.03
2022-11-20T03:24:09.664Z,971.06
2022-11-20T03:25:09.580Z,971.03
2022-11-20T03:26:09.492Z,971.07
2022-11-20T03:27:09.410Z,971.03
2022-11-20T03:28:09.322Z,971.04
2022-11-20T03:29:09.237Z,971.02
2022-11-20T03:30:09.156Z,971.04
2022-11-20T03:31:09.068Z,971.01
2022-11-20T03:32:08.978Z,970.98
2022-11-20T03:33:08.894Z,970.95
2022-11-20T03:34:08.810Z,970.97
2022-11-20T03:35:08.726Z,970.98
2022-11-20T03:36:08.644Z,971.01
2022-11-20T03:37:08.555Z,970.99
2022-11-20T03:38:08.466Z,970.98
2022-11-20T03:39:08.377Z,970.95
2022-11-20T03:40:08.297Z,970.95
2022-11-20T03:41:08.213Z,970.93
2022-11-20T03:42:08.126Z,970.95
2022-11-20T03:43:08.039Z,970.97
2022-11-20T03:44:07.954Z,970.96
2022-11-20T03:45:07.867Z,971.00
2022-11-20T03:46:07.787Z,970.99
2022-11-20T03:47:07.698Z,970.97
2022-11-20T03:48:07.612Z,971.05
2022-11-20T03:49:07.528Z,971.01
2022-11-20T03:50:07.444Z,971.07
2022-11-20T03:51:07.354Z,971.07
2022-11-20T03:52:07.279Z,971.08
2022-11-20T03:53:07.187Z,971.05
2022-11-20T03:54:07.108Z,971.09
2022-11-20T03:55:07.022Z,971.11
2022-11-20T03:56:06.932Z,971.07
2022-11-20T03:57:06.848Z,971.09
2022-11-20T03:58:06.762Z,971.09
2022-11-20T03:59:06.672Z,971.03
2022-11-20T04:00:06.590Z,971.01
2022-11-20T04:01:06.504Z,971.03
2022-11-20T04:02:06.504Z,971.03
2022-11-20T04:03:06.330Z,970.97
2022-11-20T04:04:06.249Z,971.00
2022-11-20T04:05:06.163Z,970.99
2022-11-20T04:06:06.076Z,970.94
2022-11-20T04:07:06.044Z,970.94
2022-11-20T04:08:05.908Z,970.94
2022-11-20T04:09:05.825Z,970.90
2022-11-20T04:10:05.740Z,970.91
2022-11-20T04:11:05.650Z,970.90
2022-11-20T04:12:05.569Z,970.95
2022-11-20T04:13:05.482Z,970.93
2022-11-20T04:14:05.395Z,970.94
2022-11-20T04:15:05.315Z,970.97
2022-11-20T04:16:05.230Z,970.98
2022-11-20T04:17:05.135Z,970.98
2022-11-20T04:18:05.057Z,970.95
2022-11-20T04:19:04.971Z,970.96
2022-11-20T04:20:04.884Z,970.99
2022-11-20T04:21:04.799Z,970.97
2022-11-20T04:22:04.714Z,970.99
2022-11-20T04:23:04.624Z,971.03
2022-11-20T04:24:04.541Z,971.00
2022-11-20T04:25:04.461Z,970.99
2022-11-20T04:26:04.372Z,971.02
2022-11-20T04:27:04.286Z,971.03
2022-11-20T04:28:04.199Z,971.02
2022-11-20T04:29:04.115Z,971.03
2022-11-20T04:30:04.033Z,971.04
2022-11-20T04:31:03.943Z,970.98
2022-11-20T04:32:03.864Z,970.99
2022-11-20T04:33:03.775Z,971.05
2022-11-20T04:34:03.698Z,971.02
2022-11-20T04:35:03.606Z,970.98
2022-11-20T04:36:03.527Z,971.02
2022-11-20T04:37:03.438Z,971.02
2022-11-20T04:38:03.350Z,971.00
2022-11-20T04:39:03.265Z,970.97
2022-11-20T04:40:03.176Z,970.94
2022-11-20T04:41:03.089Z,970.97
2022-11-20T04:42:03.019Z,970.93
2022-11-20T04:43:02.918Z,970.96
2022-11-20T04:44:02.843Z,970.92
2022-11-20T04:45:02.755Z,970.95
2022-11-20T04:46:02.666Z,970.95
2022-11-20T04:47:02.579Z,970.89
2022-11-20T04:48:02.498Z,970.92
2022-11-20T04:49:02.412Z,970.95
2022-11-20T04:50:02.365Z,970.95
2022-11-20T04:51:02.237Z,970.91
2022-11-20T04:52:02.157Z,970.96
2022-11-20T04:53:02.071Z,970.94
2022-11-20T04:54:01.989Z,970.94
2022-11-20T04:55:01.900Z,970.93
2022-11-20T04:56:01.822Z,970.94
2022-11-20T04:57:01.731Z,970.92
2022-11-20T04:58:01.644Z,970.90
2022-11-20T04:59:01.561Z,970.87
2022-11-20T05:00:01.477Z,970.90
2022-11-20T05:01:01.391Z,970.89
2022-11-20T05:02:01.315Z,970.92
2022-11-20T05:03:01.224Z,970.88
2022-11-20T05:04:01.135Z,970.89
2022-11-20T05:05:01.047Z,970.88
2022-11-20T05:06:00.962Z,970.88
2022-11-20T05:07:00.887Z,970.87
2022-11-20T05:08:00.798Z,970.89
2022-11-20T05:09:00.705Z,970.87
2022-11-20T05:10:00.624Z,970.87
2022-11-20T05:11:00.538Z,970.84
2022-11-20T05:12:00.458Z,970.86
2022-11-20T05:13:00.368Z,970.87
2022-11-20T05:14:00.280Z,970.91
2022-11-20T05:15:00.191Z,970.88
2022-11-20T05:16:00.109Z,970.90
2022-11-20T05:17:00.030Z,970.88
2022-11-20T05:17:59.943Z,970.90
2022-11-20T05:18:59.857Z,970.92
2022-11-20T05:19:59.774Z,970.84
2022-11-20T05:20:59.692Z,970.87
2022-11-20T05:21:59.603Z,970.88
2022-11-20T05:22:59.541Z,970.86
2022-11-20T05:23:59.433Z,970.87
2022-11-20T05:24:59.344Z,970.86
2022-11-20T05:25:59.693Z,970.87
2022-11-20T05:26:59.170Z,970.87
2022-11-20T05:27:59.092Z,970.84
2022-11-20T05:28:59.007Z,970.86
2022-11-20T05:29:58.921Z,970.83
2022-11-20T05:30:58.834Z,970.82
2022-11-20T05:31:58.758Z,970.81
2022-11-20T05:32:58.661Z,970.83
2022-11-20T05:33:58.578Z,970.82
2022-11-20T05:34:58.491Z,970.81
2022-11-20T05:35:58.415Z,970.80
2022-11-20T05:36:58.320Z,970.77
2022-11-20T05:37:58.236Z,970.75
2022-11-20T05:39:01.581Z,970.75
2022-11-20T05:39:58.071Z,970.75
2022-11-20T05:40:57.980Z,970.74
2022-11-20T05:41:57.897Z,970.76
2022-11-20T05:42:57.808Z,970.74
2022-11-20T05:43:57.727Z,970.73
2022-11-20T05:44:57.645Z,970.73
2022-11-20T05:45:57.559Z,970.71
2022-11-20T05:46:57.468Z,970.74
2022-11-20T05:47:57.385Z,970.72
2022-11-20T05:48:57.301Z,970.75
2022-11-20T05:49:57.218Z,970.78
2022-11-20T05:50:57.127Z,970.77
2022-11-20T05:51:57.045Z,970.79
2022-11-20T05:52:56.959Z,970.78
2022-11-20T05:53:56.879Z,970.77
2022-11-20T05:54:56.797Z,970.78
2022-11-20T05:55:56.706Z,970.83
2022-11-20T05:56:56.619Z,970.83
2022-11-20T05:57:56.539Z,970.80
2022-11-20T05:58:56.451Z,970.86
2022-11-20T05:59:56.366Z,970.87
2022-11-20T06:00:56.284Z,970.82
2022-11-20T06:01:56.199Z,970.79
2022-11-20T06:02:56.132Z,970.77
2022-11-20T06:03:56.058Z,970.80
2022-11-20T06:04:55.936Z,970.80
2022-11-20T06:05:55.855Z,970.79
2022-11-20T06:06:55.770Z,970.79
2022-11-20T06:07:55.685Z,970.80
2022-11-20T06:08:55.597Z,970.82
2022-11-20T06:09:55.513Z,970.83
2022-11-20T06:10:55.432Z,970.80
2022-11-20T06:11:55.342Z,970.81
2022-11-20T06:12:55.262Z,970.78
2022-11-20T06:13:55.172Z,970.77
2022-11-20T06:14:55.090Z,970.80
2022-11-20T06:15:55.006Z,970.77
2022-11-20T06:16:54.914Z,970.78
2022-11-20T06:17:54.839Z,970.78
2022-11-20T06:18:54.747Z,970.77
2022-11-20T06:19:54.664Z,970.76
2022-11-20T06:20:54.577Z,970.77
2022-11-20T06:21:54.494Z,970.78
2022-11-20T06:22:54.403Z,970.79
2022-11-20T06:23:54.321Z,970.80
2022-11-20T06:24:54.238Z,970.79
2022-11-20T06:25:54.160Z,970.76
2022-11-20T06:26:54.066Z,970.73
2022-11-20T06:27:53.982Z,970.75
2022-11-20T06:28:53.899Z,970.76
2022-11-20T06:29:53.815Z,970.73
2022-11-20T06:30:53.725Z,970.73
2022-11-20T06:31:53.644Z,970.68
2022-11-20T06:32:53.554Z,970.64
2022-11-20T06:33:53.476Z,970.60
2022-11-20T06:34:53.387Z,970.68
2022-11-20T06:35:58.439Z,970.70
2022-11-20T06:36:53.212Z,970.70
2022-11-20T06:37:53.128Z,970.70
2022-11-20T06:38:53.047Z,970.70
2022-11-20T06:39:52.958Z,970.69
2022-11-20T06:40:52.872Z,970.72
2022-11-20T06:41:58.332Z,970.74
2022-11-20T06:42:52.703Z,970.67
2022-11-20T06:43:52.622Z,970.65
2022-11-20T06:44:52.530Z,970.63
2022-11-20T06:45:52.446Z,970.68
2022-11-20T06:46:52.369Z,970.67
2022-11-20T06:47:52.280Z,970.71
2022-11-20T06:48:52.192Z,970.69
2022-11-20T06:49:52.108Z,970.68
2022-11-20T06:50:52.029Z,970.70
2022-11-20T06:51:51.994Z,970.67
2022-11-20T06:52:51.856Z,970.68
2022-11-20T06:53:51.770Z,970.68
2022-11-20T06:54:51.681Z,970.66
2022-11-20T06:55:51.598Z,970.69
2022-11-20T06:56:51.547Z,970.69
2022-11-20T06:57:54.802Z,970.72
2022-11-20T06:58:51.344Z,970.70
2022-11-20T06:59:51.254Z,970.75
2022-11-20T07:00:51.218Z,970.76
2022-11-20T07:01:51.082Z,970.77
2022-11-20T07:02:50.997Z,970.77
2022-11-20T07:03:54.192Z,970.75
2022-11-20T07:04:50.836Z,970.74
2022-11-20T07:05:50.740Z,970.80
2022-11-20T07:06:50.658Z,970.73
2022-11-20T07:07:50.576Z,970.80
2022-11-20T07:08:50.512Z,970.80
2022-11-20T07:09:50.403Z,970.79
2022-11-20T07:10:50.316Z,970.84
2022-11-20T07:11:50.229Z,970.82
2022-11-20T07:12:50.150Z,970.87
2022-11-20T07:13:50.063Z,970.86
2022-11-20T07:14:49.986Z,970.85
2022-11-20T07:15:49.889Z,970.89
2022-11-20T07:16:49.808Z,970.83
2022-11-20T07:17:49.722Z,970.85
2022-11-20T07:18:51.010Z,970.83
2022-11-20T07:19:49.556Z,970.83
2022-11-20T07:20:49.471Z,970.84
2022-11-20T07:21:49.377Z,970.81
2022-11-20T07:22:49.305Z,970.81
2022-11-20T07:23:49.210Z,970.80
2022-11-20T07:24:49.125Z,970.83
2022-11-20T07:25:49.037Z,970.82
2022-11-20T07:26:48.955Z,970.82
2022-11-20T07:27:48.872Z,970.83
2022-11-20T07:28:48.787Z,970.81
2022-11-20T07:29:48.698Z,970.79
2022-11-20T07:30:48.614Z,970.78
2022-11-20T07:31:48.532Z,970.76
2022-11-20T07:32:48.443Z,970.78
2022-11-20T07:33:48.356Z,970.84
2022-11-20T07:34:48.272Z,970.84
2022-11-20T07:35:48.196Z,970.87
2022-11-20T07:36:48.105Z,970.86
2022-11-20T07:37:48.024Z,970.88
2022-11-20T07:38:47.934Z,970.91
2022-11-20T07:39:47.851Z,970.89
2022-11-20T07:40:47.765Z,970.86
2022-11-20T07:41:47.680Z,970.86
2022-11-20T07:42:47.593Z,970.87
2022-11-20T07:43:47.507Z,970.86
2022-11-20T07:44:47.427Z,970.89
2022-11-20T07:45:47.340Z,970.87
2022-11-20T07:46:47.255Z,970.89
2022-11-20T07:47:47.169Z,970.89
2022-11-20T07:48:47.089Z,970.89
2022-11-20T07:49:47.008Z,970.95
2022-11-20T07:50:46.916Z,970.97
2022-11-20T07:51:50.168Z,970.94
2022-11-20T07:52:46.746Z,970.99
2022-11-20T07:53:46.676Z,971.04
2022-11-20T07:54:46.575Z,971.02
2022-11-20T07:55:46.489Z,971.04
2022-11-20T07:56:46.402Z,971.02
2022-11-20T07:57:46.315Z,971.10
2022-11-20T07:58:46.234Z,971.06
2022-11-20T07:59:46.146Z,971.07
2022-11-20T08:00:46.124Z,971.07
2022-11-20T08:01:45.980Z,971.06
2022-11-20T08:02:45.891Z,971.07
2022-11-20T08:03:45.815Z,971.09
2022-11-20T08:04:45.723Z,971.09
2022-11-20T08:05:45.639Z,971.07
2022-11-20T08:06:45.553Z,971.08
2022-11-20T08:07:45.514Z,971.06
2022-11-20T08:08:45.381Z,971.06
2022-11-20T08:09:45.300Z,971.04
2022-11-20T08:10:45.211Z,971.05
2022-11-20T08:11:45.125Z,971.03
2022-11-20T08:12:45.046Z,971.04
2022-11-20T08:13:44.959Z,971.04
2022-11-20T08:14:44.872Z,971.04
2022-11-20T08:15:44.785Z,971.08
2022-11-20T08:16:44.706Z,971.05
2022-11-20T08:18:02.025Z,971.08
2022-11-20T08:18:44.532Z,971.09
2022-11-20T08:19:44.445Z,971.04
2022-11-20T08:20:44.365Z,971.05
2022-11-20T08:21:44.283Z,971.03
2022-11-20T08:22:44.192Z,971.08
2022-11-20T08:23:44.110Z,971.11
2022-11-20T08:24:44.028Z,971.11
2022-11-20T08:25:43.937Z,971.07
2022-11-20T08:26:43.855Z,971.14
2022-11-20T08:27:43.769Z,971.13
2022-11-20T08:28:43.686Z,971.09
2022-11-20T08:29:43.607Z,971.07
2022-11-20T08:30:43.513Z,971.08
2022-11-20T08:31:43.429Z,971.09
2022-11-20T08:32:43.346Z,971.07
2022-11-20T08:33:43.261Z,971.13
2022-11-20T08:34:43.187Z,971.06
2022-11-20T08:35:43.089Z,971.09
2022-11-20T08:36:43.006Z,971.09
2022-11-20T08:37:42.925Z,971.07
2022-11-20T08:38:42.841Z,971.08
2022-11-20T08:39:42.752Z,971.03
2022-11-20T08:40:42.671Z,971.06
2022-11-20T08:41:42.578Z,971.04
2022-11-20T08:42:42.494Z,971.04
2022-11-20T08:43:42.407Z,971.02
2022-11-20T08:44:42.331Z,971.08
2022-11-20T08:45:42.242Z,971.06
2022-11-20T08:46:42.176Z,971.10
2022-11-20T08:47:42.073Z,971.13
2022-11-20T08:48:41.989Z,971.10
2022-11-20T08:49:41.904Z,971.11
2022-11-20T08:50:41.816Z,971.10
2022-11-20T08:51:41.732Z,971.05
2022-11-20T08:52:41.650Z,971.08
2022-11-20T08:53:41.565Z,971.09
2022-11-20T08:54:41.476Z,971.04
2022-11-20T08:55:41.394Z,971.07
2022-11-20T08:56:41.310Z,971.07
2022-11-20T08:57:41.225Z,971.02
2022-11-20T08:59:09.971Z,971.05
2022-11-20T09:00:05.172Z,971.06
2022-11-20T09:00:41.018Z,971.02
2022-11-20T09:01:40.888Z,971.05
2022-11-20T09:02:40.799Z,971.04
2022-11-20T09:03:40.720Z,971.00
2022-11-20T09:04:40.632Z,970.99
2022-11-20T09:05:40.548Z,971.01
2022-11-20T09:06:40.463Z,971.00
2022-11-20T09:07:40.408Z,971.00
2022-11-20T09:08:40.299Z,971.00
2022-11-20T09:09:40.206Z,971.00
2022-11-20T09:10:40.126Z,970.98
2022-11-20T09:11:40.044Z,971.00
2022-11-20T09:12:39.962Z,971.00
2022-11-20T09:13:39.868Z,970.99
2022-11-20T09:14:39.787Z,971.02
2022-11-20T09:15:39.703Z,971.01
2022-11-20T09:16:39.621Z,971.01
2022-11-20T09:17:39.532Z,970.99
2022-11-20T09:18:39.451Z,970.95
2022-11-20T09:19:39.361Z,971.01
2022-11-20T09:20:39.308Z,970.97
2022-11-20T09:21:39.197Z,970.94
2022-11-20T09:22:39.109Z,970.96
2022-11-20T09:23:39.027Z,970.92
2022-11-20T09:24:38.941Z,970.91
2022-11-20T09:25:38.862Z,970.91
2022-11-20T09:26:38.772Z,970.94
2022-11-20T09:27:38.694Z,970.93
2022-11-20T09:28:38.610Z,970.96
2022-11-20T09:29:38.520Z,970.96
2022-11-20T09:30:38.436Z,970.96
2022-11-20T09:31:38.357Z,970.94
2022-11-20T09:32:38.270Z,970.86
2022-11-20T09:33:38.186Z,970.87
2022-11-20T09:34:38.099Z,970.86
2022-11-20T09:35:38.018Z,970.83
2022-11-20T09:36:37.932Z,970.83
2022-11-20T09:37:37.845Z,970.84
2022-11-20T09:38:37.762Z,970.84
2022-11-20T09:39:37.683Z,970.82
2022-11-20T09:40:37.593Z,970.83
2022-11-20T09:41:37.513Z,970.82
2022-11-20T09:42:37.429Z,970.81
2022-11-20T09:43:39.816Z,970.83
2022-11-20T09:44:37.267Z,970.84
2022-11-20T09:45:37.172Z,970.87
2022-11-20T09:46:37.094Z,970.93
2022-11-20T09:47:37.010Z,970.94
2022-11-20T09:48:36.930Z,970.97
2022-11-20T09:49:36.840Z,970.94
2022-11-20T09:50:36.757Z,970.97
2022-11-20T09:51:36.676Z,970.95
2022-11-20T09:52:36.585Z,970.90
2022-11-20T09:53:36.503Z,970.93
2022-11-20T09:54:36.420Z,970.89
2022-11-20T09:55:36.335Z,970.92
2022-11-20T09:56:36.251Z,970.89
2022-11-20T09:57:36.164Z,970.88
2022-11-20T09:58:36.083Z,970.94
2022-11-20T09:59:35.995Z,970.91
2022-11-20T10:00:35.967Z,970.90
2022-11-20T10:01:35.831Z,970.93
2022-11-20T10:02:35.749Z,970.92
2022-11-20T10:03:35.664Z,970.90
2022-11-20T10:04:38.173Z,970.88
2022-11-20T10:05:35.499Z,970.85
2022-11-20T10:06:35.416Z,970.80
2022-11-20T10:07:35.369Z,970.83
2022-11-20T10:08:35.245Z,970.89
2022-11-20T10:09:35.159Z,970.82
2022-11-20T10:10:38.489Z,970.79
2022-11-20T10:11:34.991Z,970.79
2022-11-20T10:12:34.910Z,970.82
2022-11-20T10:13:34.826Z,970.81
2022-11-20T10:14:34.744Z,970.76
2022-11-20T10:15:34.658Z,970.79
2022-11-20T10:16:40.613Z,970.80
2022-11-20T10:17:34.494Z,970.79
2022-11-20T10:18:34.406Z,970.75
2022-11-20T10:19:34.320Z,970.79
2022-11-20T10:20:34.239Z,970.78
2022-11-20T10:21:34.158Z,970.79
2022-11-20T10:22:34.073Z,970.80
2022-11-20T10:23:33.988Z,970.78
2022-11-20T10:24:33.904Z,970.79
2022-11-20T10:25:33.824Z,970.75
2022-11-20T10:26:33.739Z,970.82
2022-11-20T10:27:33.653Z,970.80
2022-11-20T10:28:33.567Z,970.84
2022-11-20T10:29:33.484Z,970.90
2022-11-20T10:30:33.437Z,970.82
2022-11-20T10:31:33.314Z,970.80
2022-11-20T10:32:33.237Z,970.81
2022-11-20T10:33:50.013Z,970.76
2022-11-20T10:34:33.068Z,970.79
2022-11-20T10:35:32.986Z,970.77
2022-11-20T10:36:32.903Z,970.75
2022-11-20T10:37:32.813Z,970.79
2022-11-20T10:38:32.738Z,970.73
2022-11-20T10:39:32.645Z,970.74
2022-11-20T10:40:32.564Z,970.74
2022-11-20T10:41:35.840Z,970.76
2022-11-20T10:42:32.406Z,970.72
2022-11-20T10:43:32.312Z,970.76
2022-11-20T10:44:32.233Z,970.73
2022-11-20T10:45:32.149Z,970.75
2022-11-20T10:46:32.065Z,970.78
2022-11-20T10:47:31.983Z,970.77
2022-11-20T10:48:31.895Z,970.74
2022-11-20T10:49:31.819Z,970.70
2022-11-20T10:50:31.734Z,970.71
2022-11-20T10:51:31.645Z,970.65
2022-11-20T10:52:31.561Z,970.68
2022-11-20T10:53:31.483Z,970.66
2022-11-20T10:54:31.418Z,970.69
2022-11-20T10:55:31.313Z,970.64
2022-11-20T10:56:31.236Z,970.63
2022-11-20T10:57:31.141Z,970.62
2022-11-20T10:58:31.063Z,970.63
2022-11-20T10:59:30.977Z,970.62
2022-11-20T11:00:30.894Z,970.60
2022-11-20T11:01:30.812Z,970.54
2022-11-20T11:02:30.730Z,970.63
2022-11-20T11:03:30.646Z,970.59
2022-11-20T11:04:30.559Z,970.61
2022-11-20T11:05:30.479Z,970.62
2022-11-20T11:06:30.397Z,970.53
2022-11-20T11:07:30.336Z,970.55
2022-11-20T11:08:30.226Z,970.56
2022-11-20T11:09:30.148Z,970.65
2022-11-20T11:10:30.061Z,970.56
2022-11-20T11:11:29.978Z,970.60
2022-11-20T11:12:29.894Z,970.55
2022-11-20T11:13:29.816Z,970.56
2022-11-20T11:14:29.724Z,970.56
2022-11-20T11:15:29.654Z,970.61
2022-11-20T11:16:29.564Z,970.60
2022-11-20T11:17:29.490Z,970.56
2022-11-20T11:18:29.403Z,970.59
2022-11-20T11:19:29.316Z,970.54
2022-11-20T11:20:29.229Z,970.52
2022-11-20T11:21:29.146Z,970.53
2022-11-20T11:22:29.061Z,970.48
2022-11-20T11:23:28.983Z,970.52
2022-11-20T11:24:43.388Z,970.48
2022-11-20T11:25:28.815Z,970.48
2022-11-20T11:26:28.737Z,970.51
2022-11-20T11:27:28.660Z,970.49
2022-11-20T11:28:28.567Z,970.50
2022-11-20T11:29:28.479Z,970.48
2022-11-20T11:30:28.394Z,970.44
2022-11-20T11:31:28.313Z,970.48
2022-11-20T11:32:28.228Z,970.53
2022-11-20T11:33:28.148Z,970.46
2022-11-20T11:34:28.061Z,970.49
2022-11-20T11:35:27.977Z,970.52
2022-11-20T11:36:27.896Z,970.46
2022-11-20T11:37:27.817Z,970.46
2022-11-20T11:38:27.730Z,970.48
2022-11-20T11:39:27.645Z,970.46
2022-11-20T11:40:27.600Z,970.45
2022-11-20T11:41:27.484Z,970.54
2022-11-20T11:42:27.397Z,970.44
2022-11-20T11:43:27.317Z,970.48
2022-11-20T11:44:27.231Z,970.43
2022-11-20T11:45:27.149Z,970.51
2022-11-20T11:46:27.064Z,970.46
2022-11-20T11:47:26.985Z,970.47
2022-11-20T11:48:26.899Z,970.41
2022-11-20T11:49:26.818Z,970.40
2022-11-20T11:50:26.731Z,970.39
2022-11-20T11:51:26.648Z,970.39
2022-11-20T11:52:26.562Z,970.43
2022-11-20T11:53:26.496Z,970.44
2022-11-20T11:54:26.397Z,970.41
2022-11-20T11:55:26.317Z,970.46
2022-11-20T11:56:26.234Z,970.48
2022-11-20T11:57:26.150Z,970.46
2022-11-20T11:58:26.070Z,970.47
2022-11-20T11:59:26.132Z,970.50
2022-11-20T12:00:25.906Z,970.54
2022-11-20T12:01:25.816Z,970.52
2022-11-20T12:02:25.800Z,970.53
2022-11-20T12:03:25.651Z,970.67
2022-11-20T12:04:25.572Z,970.57
2022-11-20T12:05:25.495Z,970.58
2022-11-20T12:06:25.408Z,970.57
2022-11-20T12:07:45.527Z,970.54
2022-11-20T12:08:25.307Z,970.68
2022-11-20T12:09:25.528Z,970.62
2022-11-20T12:10:25.073Z,970.65
2022-11-20T12:11:24.988Z,970.65
2022-11-20T12:12:24.906Z,970.58
2022-11-20T12:13:24.820Z,970.61
2022-11-20T12:14:24.739Z,970.57
2022-11-20T12:15:24.655Z,970.53
2022-11-20T12:16:24.571Z,970.54
2022-11-20T12:17:24.486Z,970.56
2022-11-20T12:18:24.403Z,970.57
2022-11-20T12:19:24.649Z,970.53
2022-11-20T12:20:24.242Z,970.49
2022-11-20T12:21:24.157Z,970.50
2022-11-20T12:22:24.072Z,970.47
2022-11-20T12:23:23.987Z,970.45
2022-11-20T12:24:23.909Z,970.46
2022-11-20T12:25:23.824Z,970.44
2022-11-20T12:26:23.739Z,970.40
2022-11-20T12:27:23.656Z,970.40